sensor_id;sensor_type;location;lat;lon;timestamp;P1;durP1;ratioP1;P2;durP2;ratioP2
36829;SDS011;22767;47.328;9.640;2022-07-23T00:01:28;8.60;;;7.47;;
36829;SDS011;22767;47.328;9.640;2022-07-23T00:04:14;9.32;;;7.78;;
36829;SDS011;22767;47.328;9.640;2022-07-23T00:07:01;9.38;;;7.10;;
36829;SDS011;22767;47.328;9.640;2022-07-23T00:09:47;7.95;;;6.95;;
36829;SDS011;22767;47.328;9.640;2022-07-23T00:12:33;7.57;;;6.82;;
36829;SDS011;22767;47.328;9.640;2022-07-23T00:15:20;6.82;;;5.78;;
36829;SDS011;22767;47.328;9.640;2022-07-23T00:18:06;7.43;;;6.57;;
36829;SDS011;22767;47.328;9.640;2022-07-23T00:20:53;7.80;;;6.70;;
36829;SDS011;22767;47.328;9.640;2022-07-23T00:23:39;6.85;;;6.15;;
36829;SDS011;22767;47.328;9.640;2022-07-23T00:26:26;7.68;;;6.72;;
36829;SDS011;22767;47.328;9.640;2022-07-23T00:29:12;8.00;;;7.05;;
36829;SDS011;22767;47.328;9.640;2022-07-23T00:31:59;11.45;;;8.00;;
36829;SDS011;22767;47.328;9.640;2022-07-23T00:34:45;8.93;;;7.15;;
36829;SDS011;22767;47.328;9.640;2022-07-23T00:37:31;9.77;;;7.47;;
36829;SDS011;22767;47.328;9.640;2022-07-23T00:40:18;8.93;;;6.85;;
36829;SDS011;22767;47.328;9.640;2022-07-23T00:43:05;12.18;;;8.00;;
36829;SDS011;22767;47.328;9.640;2022-07-23T00:45:51;12.32;;;8.70;;
36829;SDS011;22767;47.328;9.640;2022-07-23T00:48:38;11.13;;;8.32;;
36829;SDS011;22767;47.328;9.640;2022-07-23T00:51:24;10.77;;;7.65;;
36829;SDS011;22767;47.328;9.640;2022-07-23T00:54:11;10.38;;;7.18;;
36829;SDS011;22767;47.328;9.640;2022-07-23T00:56:57;10.07;;;8.48;;
36829;SDS011;22767;47.328;9.640;2022-07-23T00:59:44;8.70;;;7.80;;
36829;SDS011;22767;47.328;9.640;2022-07-23T01:02:30;11.68;;;9.13;;
36829;SDS011;22767;47.328;9.640;2022-07-23T01:05:17;12.48;;;9.73;;
36829;SDS011;22767;47.328;9.640;2022-07-23T01:08:07;13.27;;;9.60;;
36829;SDS011;22767;47.328;9.640;2022-07-23T01:10:53;15.40;;;9.88;;
36829;SDS011;22767;47.328;9.640;2022-07-23T01:13:43;12.48;;;11.18;;
36829;SDS011;22767;47.328;9.640;2022-07-23T01:16:29;11.00;;;9.23;;
36829;SDS011;22767;47.328;9.640;2022-07-23T01:19:16;9.25;;;7.85;;
36829;SDS011;22767;47.328;9.640;2022-07-23T01:22:03;13.73;;;8.80;;
36829;SDS011;22767;47.328;9.640;2022-07-23T01:24:49;10.63;;;9.55;;
36829;SDS011;22767;47.328;9.640;2022-07-23T01:27:36;11.55;;;9.43;;
36829;SDS011;22767;47.328;9.640;2022-07-23T01:30:22;11.95;;;9.85;;
36829;SDS011;22767;47.328;9.640;2022-07-23T01:33:09;11.02;;;8.82;;
36829;SDS011;22767;47.328;9.640;2022-07-23T01:35:55;12.85;;;10.10;;
36829;SDS011;22767;47.328;9.640;2022-07-23T01:38:42;11.88;;;10.70;;
36829;SDS011;22767;47.328;9.640;2022-07-23T01:41:28;12.13;;;10.30;;
36829;SDS011;22767;47.328;9.640;2022-07-23T01:44:14;11.55;;;10.35;;
36829;SDS011;22767;47.328;9.640;2022-07-23T01:47:01;10.10;;;9.10;;
36829;SDS011;22767;47.328;9.640;2022-07-23T01:49:47;9.65;;;8.65;;
36829;SDS011;22767;47.328;9.640;2022-07-23T01:52:34;8.77;;;7.85;;
36829;SDS011;22767;47.328;9.640;2022-07-23T01:55:21;8.90;;;7.25;;
36829;SDS011;22767;47.328;9.640;2022-07-23T01:58:07;7.47;;;6.78;;
36829;SDS011;22767;47.328;9.640;2022-07-23T02:00:54;8.63;;;7.78;;
36829;SDS011;22767;47.328;9.640;2022-07-23T02:03:40;8.40;;;7.50;;
36829;SDS011;22767;47.328;9.640;2022-07-23T02:06:27;8.70;;;6.32;;
36829;SDS011;22767;47.328;9.640;2022-07-23T02:09:13;7.63;;;6.80;;
36829;SDS011;22767;47.328;9.640;2022-07-23T02:12:00;9.82;;;6.72;;
36829;SDS011;22767;47.328;9.640;2022-07-23T02:14:46;7.35;;;6.32;;
36829;SDS011;22767;47.328;9.640;2022-07-23T02:17:33;7.45;;;6.65;;
36829;SDS011;22767;47.328;9.640;2022-07-23T02:20:19;7.78;;;6.25;;
36829;SDS011;22767;47.328;9.640;2022-07-23T02:23:06;7.93;;;6.30;;
36829;SDS011;22767;47.328;9.640;2022-07-23T02:25:52;7.03;;;6.28;;
36829;SDS011;22767;47.328;9.640;2022-07-23T02:28:39;6.45;;;5.50;;
36829;SDS011;22767;47.328;9.640;2022-07-23T02:31:25;7.78;;;5.60;;
36829;SDS011;22767;47.328;9.640;2022-07-23T02:34:12;6.60;;;5.40;;
36829;SDS011;22767;47.328;9.640;2022-07-23T02:36:58;5.88;;;5.22;;
36829;SDS011;22767;47.328;9.640;2022-07-23T02:39:45;6.28;;;5.68;;
36829;SDS011;22767;47.328;9.640;2022-07-23T02:42:33;6.40;;;5.32;;
36829;SDS011;22767;47.328;9.640;2022-07-23T02:45:20;5.65;;;5.03;;
36829;SDS011;22767;47.328;9.640;2022-07-23T02:48:09;5.68;;;5.10;;
36829;SDS011;22767;47.328;9.640;2022-07-23T02:50:57;7.90;;;5.05;;
36829;SDS011;22767;47.328;9.640;2022-07-23T02:53:44;4.95;;;4.38;;
36829;SDS011;22767;47.328;9.640;2022-07-23T02:56:30;6.10;;;5.25;;
36829;SDS011;22767;47.328;9.640;2022-07-23T02:59:17;4.88;;;4.47;;
36829;SDS011;22767;47.328;9.640;2022-07-23T03:02:03;5.40;;;4.90;;
36829;SDS011;22767;47.328;9.640;2022-07-23T03:04:50;6.45;;;4.60;;
36829;SDS011;22767;47.328;9.640;2022-07-23T03:07:36;4.60;;;4.20;;
36829;SDS011;22767;47.328;9.640;2022-07-23T03:10:23;4.93;;;4.38;;
36829;SDS011;22767;47.328;9.640;2022-07-23T03:13:09;4.65;;;4.13;;
36829;SDS011;22767;47.328;9.640;2022-07-23T03:15:55;5.57;;;4.22;;
36829;SDS011;22767;47.328;9.640;2022-07-23T03:18:42;6.75;;;4.57;;
36829;SDS011;22767;47.328;9.640;2022-07-23T03:21:28;4.88;;;4.38;;
36829;SDS011;22767;47.328;9.640;2022-07-23T03:24:15;4.70;;;4.30;;
36829;SDS011;22767;47.328;9.640;2022-07-23T03:27:03;6.35;;;4.45;;
36829;SDS011;22767;47.328;9.640;2022-07-23T03:29:50;4.55;;;3.90;;
36829;SDS011;22767;47.328;9.640;2022-07-23T03:32:36;4.28;;;3.88;;
36829;SDS011;22767;47.328;9.640;2022-07-23T03:35:23;4.88;;;4.43;;
36829;SDS011;22767;47.328;9.640;2022-07-23T03:38:09;5.60;;;3.97;;
36829;SDS011;22767;47.328;9.640;2022-07-23T03:40:56;5.50;;;4.40;;
36829;SDS011;22767;47.328;9.640;2022-07-23T03:43:42;6.78;;;4.70;;
36829;SDS011;22767;47.328;9.640;2022-07-23T03:46:29;4.85;;;4.07;;
36829;SDS011;22767;47.328;9.640;2022-07-23T03:49:15;5.00;;;4.22;;
36829;SDS011;22767;47.328;9.640;2022-07-23T03:52:01;6.35;;;4.60;;
36829;SDS011;22767;47.328;9.640;2022-07-23T03:54:48;4.07;;;3.75;;
36829;SDS011;22767;47.328;9.640;2022-07-23T03:57:34;4.20;;;3.80;;
36829;SDS011;22767;47.328;9.640;2022-07-23T04:00:21;4.78;;;4.18;;
36829;SDS011;22767;47.328;9.640;2022-07-23T04:03:07;5.00;;;4.03;;
36829;SDS011;22767;47.328;9.640;2022-07-23T04:05:54;5.13;;;3.83;;
36829;SDS011;22767;47.328;9.640;2022-07-23T04:08:40;4.20;;;3.78;;
36829;SDS011;22767;47.328;9.640;2022-07-23T04:11:27;6.35;;;4.50;;
36829;SDS011;22767;47.328;9.640;2022-07-23T04:14:13;7.18;;;4.70;;
36829;SDS011;22767;47.328;9.640;2022-07-23T04:16:59;5.60;;;4.15;;
36829;SDS011;22767;47.328;9.640;2022-07-23T04:19:46;5.57;;;4.28;;
36829;SDS011;22767;47.328;9.640;2022-07-23T04:22:32;5.03;;;4.53;;
36829;SDS011;22767;47.328;9.640;2022-07-23T04:25:19;4.43;;;3.85;;
36829;SDS011;22767;47.328;9.640;2022-07-23T04:28:05;6.28;;;5.03;;
36829;SDS011;22767;47.328;9.640;2022-07-23T04:30:52;4.88;;;3.78;;
36829;SDS011;22767;47.328;9.640;2022-07-23T04:33:38;4.68;;;4.22;;
36829;SDS011;22767;47.328;9.640;2022-07-23T04:36:24;8.00;;;4.25;;
36829;SDS011;22767;47.328;9.640;2022-07-23T04:39:11;4.40;;;3.92;;
36829;SDS011;22767;47.328;9.640;2022-07-23T04:41:57;6.13;;;4.20;;
36829;SDS011;22767;47.328;9.640;2022-07-23T04:44:44;5.70;;;4.57;;
36829;SDS011;22767;47.328;9.640;2022-07-23T04:47:30;4.13;;;3.72;;
36829;SDS011;22767;47.328;9.640;2022-07-23T04:50:17;7.22;;;4.47;;
36829;SDS011;22767;47.328;9.640;2022-07-23T04:53:06;5.03;;;3.83;;
36829;SDS011;22767;47.328;9.640;2022-07-23T04:55:53;5.97;;;4.18;;
36829;SDS011;22767;47.328;9.640;2022-07-23T04:58:39;4.85;;;3.60;;
36829;SDS011;22767;47.328;9.640;2022-07-23T05:01:26;4.95;;;3.75;;
36829;SDS011;22767;47.328;9.640;2022-07-23T05:04:12;4.03;;;3.53;;
36829;SDS011;22767;47.328;9.640;2022-07-23T05:06:59;3.42;;;3.22;;
36829;SDS011;22767;47.328;9.640;2022-07-23T05:09:45;4.85;;;3.35;;
36829;SDS011;22767;47.328;9.640;2022-07-23T05:12:32;3.97;;;3.17;;
36829;SDS011;22767;47.328;9.640;2022-07-23T05:15:18;4.10;;;3.55;;
36829;SDS011;22767;47.328;9.640;2022-07-23T05:18:04;4.25;;;3.40;;
36829;SDS011;22767;47.328;9.640;2022-07-23T05:20:51;5.00;;;3.97;;
36829;SDS011;22767;47.328;9.640;2022-07-23T05:23:37;4.10;;;3.70;;
36829;SDS011;22767;47.328;9.640;2022-07-23T05:26:24;5.07;;;4.05;;
36829;SDS011;22767;47.328;9.640;2022-07-23T05:29:10;3.80;;;3.50;;
36829;SDS011;22767;47.328;9.640;2022-07-23T05:31:56;5.13;;;3.58;;
36829;SDS011;22767;47.328;9.640;2022-07-23T05:34:43;6.05;;;3.80;;
36829;SDS011;22767;47.328;9.640;2022-07-23T05:37:29;4.70;;;3.70;;
36829;SDS011;22767;47.328;9.640;2022-07-23T05:40:16;5.97;;;3.92;;
36829;SDS011;22767;47.328;9.640;2022-07-23T05:43:02;4.03;;;3.72;;
36829;SDS011;22767;47.328;9.640;2022-07-23T05:45:49;5.28;;;4.55;;
36829;SDS011;22767;47.328;9.640;2022-07-23T05:48:35;3.72;;;3.40;;
36829;SDS011;22767;47.328;9.640;2022-07-23T05:51:22;5.55;;;4.05;;
36829;SDS011;22767;47.328;9.640;2022-07-23T05:54:09;4.10;;;3.63;;
36829;SDS011;22767;47.328;9.640;2022-07-23T05:56:55;4.38;;;3.95;;
36829;SDS011;22767;47.328;9.640;2022-07-23T05:59:41;6.53;;;4.50;;
36829;SDS011;22767;47.328;9.640;2022-07-23T06:02:28;9.07;;;4.22;;
36829;SDS011;22767;47.328;9.640;2022-07-23T06:05:14;5.07;;;4.20;;
36829;SDS011;22767;47.328;9.640;2022-07-23T06:08:01;4.88;;;4.32;;
36829;SDS011;22767;47.328;9.640;2022-07-23T06:10:48;5.32;;;4.10;;
36829;SDS011;22767;47.328;9.640;2022-07-23T06:13:34;4.53;;;4.10;;
36829;SDS011;22767;47.328;9.640;2022-07-23T06:16:20;4.53;;;4.13;;
36829;SDS011;22767;47.328;9.640;2022-07-23T06:19:07;3.90;;;3.60;;
36829;SDS011;22767;47.328;9.640;2022-07-23T06:21:53;7.15;;;4.10;;
36829;SDS011;22767;47.328;9.640;2022-07-23T06:24:40;6.90;;;3.75;;
36829;SDS011;22767;47.328;9.640;2022-07-23T06:27:26;4.25;;;3.85;;
36829;SDS011;22767;47.328;9.640;2022-07-23T06:30:13;5.93;;;3.85;;
36829;SDS011;22767;47.328;9.640;2022-07-23T06:33:01;7.55;;;4.03;;
36829;SDS011;22767;47.328;9.640;2022-07-23T06:35:47;4.88;;;4.15;;
36829;SDS011;22767;47.328;9.640;2022-07-23T06:38:34;5.03;;;4.25;;
36829;SDS011;22767;47.328;9.640;2022-07-23T06:41:20;4.32;;;3.90;;
36829;SDS011;22767;47.328;9.640;2022-07-23T06:44:07;6.28;;;4.10;;
36829;SDS011;22767;47.328;9.640;2022-07-23T06:46:54;4.30;;;3.90;;
36829;SDS011;22767;47.328;9.640;2022-07-23T06:49:40;4.45;;;4.05;;
36829;SDS011;22767;47.328;9.640;2022-07-23T06:52:27;6.28;;;4.00;;
36829;SDS011;22767;47.328;9.640;2022-07-23T06:55:13;6.38;;;3.85;;
36829;SDS011;22767;47.328;9.640;2022-07-23T06:58:00;5.68;;;3.70;;
36829;SDS011;22767;47.328;9.640;2022-07-23T07:00:46;4.55;;;3.78;;
36829;SDS011;22767;47.328;9.640;2022-07-23T07:03:33;9.70;;;4.93;;
36829;SDS011;22767;47.328;9.640;2022-07-23T07:06:19;5.10;;;4.05;;
36829;SDS011;22767;47.328;9.640;2022-07-23T07:09:06;5.30;;;4.45;;
36829;SDS011;22767;47.328;9.640;2022-07-23T07:11:52;6.82;;;4.10;;
36829;SDS011;22767;47.328;9.640;2022-07-23T07:14:39;5.90;;;4.35;;
36829;SDS011;22767;47.328;9.640;2022-07-23T07:17:25;8.43;;;3.90;;
36829;SDS011;22767;47.328;9.640;2022-07-23T07:20:11;6.72;;;4.28;;
36829;SDS011;22767;47.328;9.640;2022-07-23T07:22:58;4.85;;;4.00;;
36829;SDS011;22767;47.328;9.640;2022-07-23T07:25:44;3.88;;;3.58;;
36829;SDS011;22767;47.328;9.640;2022-07-23T07:28:31;4.65;;;3.92;;
36829;SDS011;22767;47.328;9.640;2022-07-23T07:31:17;5.00;;;4.60;;
36829;SDS011;22767;47.328;9.640;2022-07-23T07:34:04;5.18;;;4.68;;
36829;SDS011;22767;47.328;9.640;2022-07-23T07:36:50;3.90;;;3.60;;
36829;SDS011;22767;47.328;9.640;2022-07-23T07:39:37;5.88;;;5.28;;
36829;SDS011;22767;47.328;9.640;2022-07-23T07:42:23;5.05;;;4.57;;
36829;SDS011;22767;47.328;9.640;2022-07-23T07:45:09;6.65;;;5.53;;
36829;SDS011;22767;47.328;9.640;2022-07-23T07:47:56;5.95;;;5.00;;
36829;SDS011;22767;47.328;9.640;2022-07-23T07:50:43;6.25;;;5.05;;
36829;SDS011;22767;47.328;9.640;2022-07-23T07:53:29;6.47;;;4.43;;
36829;SDS011;22767;47.328;9.640;2022-07-23T07:56:15;6.20;;;4.32;;
36829;SDS011;22767;47.328;9.640;2022-07-23T07:59:02;4.90;;;4.40;;
36829;SDS011;22767;47.328;9.640;2022-07-23T08:01:49;4.60;;;4.20;;
36829;SDS011;22767;47.328;9.640;2022-07-23T08:04:35;4.78;;;4.28;;
36829;SDS011;22767;47.328;9.640;2022-07-23T08:07:22;7.60;;;5.13;;
36829;SDS011;22767;47.328;9.640;2022-07-23T08:10:08;5.15;;;4.63;;
36829;SDS011;22767;47.328;9.640;2022-07-23T08:12:56;5.20;;;4.70;;
36829;SDS011;22767;47.328;9.640;2022-07-23T08:15:43;4.90;;;4.40;;
36829;SDS011;22767;47.328;9.640;2022-07-23T08:18:30;5.68;;;4.97;;
36829;SDS011;22767;47.328;9.640;2022-07-23T08:21:16;4.63;;;4.22;;
36829;SDS011;22767;47.328;9.640;2022-07-23T08:24:02;5.28;;;4.47;;
36829;SDS011;22767;47.328;9.640;2022-07-23T08:26:49;6.25;;;5.63;;
36829;SDS011;22767;47.328;9.640;2022-07-23T08:29:35;5.97;;;5.07;;
36829;SDS011;22767;47.328;9.640;2022-07-23T08:32:22;5.00;;;4.50;;
36829;SDS011;22767;47.328;9.640;2022-07-23T08:35:08;5.57;;;4.43;;
36829;SDS011;22767;47.328;9.640;2022-07-23T08:37:55;4.47;;;3.80;;
36829;SDS011;22767;47.328;9.640;2022-07-23T08:40:43;4.22;;;3.65;;
36829;SDS011;22767;47.328;9.640;2022-07-23T08:43:32;5.55;;;4.03;;
36829;SDS011;22767;47.328;9.640;2022-07-23T08:46:20;7.82;;;4.95;;
36829;SDS011;22767;47.328;9.640;2022-07-23T08:49:07;6.80;;;5.57;;
36829;SDS011;22767;47.328;9.640;2022-07-23T08:51:54;5.38;;;4.78;;
36829;SDS011;22767;47.328;9.640;2022-07-23T08:54:41;5.68;;;5.18;;
36829;SDS011;22767;47.328;9.640;2022-07-23T08:57:27;4.70;;;4.30;;
36829;SDS011;22767;47.328;9.640;2022-07-23T09:00:14;4.75;;;4.25;;
36829;SDS011;22767;47.328;9.640;2022-07-23T09:03:00;5.43;;;4.70;;
36829;SDS011;22767;47.328;9.640;2022-07-23T09:05:47;5.63;;;5.10;;
36829;SDS011;22767;47.328;9.640;2022-07-23T09:08:44;5.18;;;4.68;;
36829;SDS011;22767;47.328;9.640;2022-07-23T09:11:31;5.38;;;4.78;;
36829;SDS011;22767;47.328;9.640;2022-07-23T09:14:19;5.70;;;4.82;;
36829;SDS011;22767;47.328;9.640;2022-07-23T09:17:21;8.63;;;5.00;;
36829;SDS011;22767;47.328;9.640;2022-07-23T09:20:11;5.25;;;4.75;;
36829;SDS011;22767;47.328;9.640;2022-07-23T09:22:58;5.32;;;4.82;;
36829;SDS011;22767;47.328;9.640;2022-07-23T09:25:44;5.50;;;4.13;;
36829;SDS011;22767;47.328;9.640;2022-07-23T09:28:31;5.75;;;4.57;;
36829;SDS011;22767;47.328;9.640;2022-07-23T09:31:17;5.57;;;5.05;;
36829;SDS011;22767;47.328;9.640;2022-07-23T09:34:11;6.47;;;5.22;;
36829;SDS011;22767;47.328;9.640;2022-07-23T09:37:08;6.45;;;5.35;;
36829;SDS011;22767;47.328;9.640;2022-07-23T09:40:03;5.80;;;4.30;;
36829;SDS011;22767;47.328;9.640;2022-07-23T09:42:56;6.82;;;5.35;;
36829;SDS011;22767;47.328;9.640;2022-07-23T09:45:42;5.30;;;4.80;;
36829;SDS011;22767;47.328;9.640;2022-07-23T09:48:28;6.00;;;5.40;;
36829;SDS011;22767;47.328;9.640;2022-07-23T09:51:15;5.25;;;4.72;;
36829;SDS011;22767;47.328;9.640;2022-07-23T09:54:27;6.93;;;5.05;;
36829;SDS011;22767;47.328;9.640;2022-07-23T09:57:15;6.03;;;4.97;;
36829;SDS011;22767;47.328;9.640;2022-07-23T10:00:03;7.70;;;4.28;;
36829;SDS011;22767;47.328;9.640;2022-07-23T10:02:51;5.32;;;4.78;;
36829;SDS011;22767;47.328;9.640;2022-07-23T10:05:37;6.82;;;5.47;;
36829;SDS011;22767;47.328;9.640;2022-07-23T10:08:24;5.93;;;5.15;;
36829;SDS011;22767;47.328;9.640;2022-07-23T10:11:11;7.28;;;5.55;;
36829;SDS011;22767;47.328;9.640;2022-07-23T10:13:59;5.20;;;4.47;;
36829;SDS011;22767;47.328;9.640;2022-07-23T10:16:48;6.00;;;5.40;;
36829;SDS011;22767;47.328;9.640;2022-07-23T10:19:35;5.60;;;5.05;;
36829;SDS011;22767;47.328;9.640;2022-07-23T10:22:28;7.28;;;5.78;;
36829;SDS011;22767;47.328;9.640;2022-07-23T10:28:42;5.85;;;3.88;;
36829;SDS011;22767;47.328;9.640;2022-07-23T10:34:49;4.90;;;4.32;;
36829;SDS011;22767;47.328;9.640;2022-07-23T10:41:05;5.45;;;4.68;;
36829;SDS011;22767;47.328;9.640;2022-07-23T10:47:11;6.93;;;5.03;;
36829;SDS011;22767;47.328;9.640;2022-07-23T10:50:17;5.18;;;4.50;;
36829;SDS011;22767;47.328;9.640;2022-07-23T10:53:08;5.20;;;4.70;;
36829;SDS011;22767;47.328;9.640;2022-07-23T10:55:55;5.40;;;4.90;;
36829;SDS011;22767;47.328;9.640;2022-07-23T10:58:48;6.82;;;4.55;;
36829;SDS011;22767;47.328;9.640;2022-07-23T11:01:36;7.47;;;4.50;;
36829;SDS011;22767;47.328;9.640;2022-07-23T11:04:47;5.30;;;4.80;;
36829;SDS011;22767;47.328;9.640;2022-07-23T11:07:29;6.07;;;5.55;;
36829;SDS011;22767;47.328;9.640;2022-07-23T11:10:31;6.30;;;5.50;;
36829;SDS011;22767;47.328;9.640;2022-07-23T11:18:57;5.20;;;4.30;;
36829;SDS011;22767;47.328;9.640;2022-07-23T11:21:44;4.82;;;4.32;;
36829;SDS011;22767;47.328;9.640;2022-07-23T11:24:36;4.25;;;3.95;;
36829;SDS011;22767;47.328;9.640;2022-07-23T11:27:36;4.40;;;3.85;;
36829;SDS011;22767;47.328;9.640;2022-07-23T11:36:01;3.88;;;3.58;;
36829;SDS011;22767;47.328;9.640;2022-07-23T11:38:49;5.68;;;4.65;;
36829;SDS011;22767;47.328;9.640;2022-07-23T11:41:43;5.85;;;3.92;;
36829;SDS011;22767;47.328;9.640;2022-07-23T11:44:31;4.50;;;4.10;;
36829;SDS011;22767;47.328;9.640;2022-07-23T11:47:24;5.32;;;4.03;;
36829;SDS011;22767;47.328;9.640;2022-07-23T11:50:11;4.40;;;4.00;;
36829;SDS011;22767;47.328;9.640;2022-07-23T11:52:57;6.20;;;4.15;;
36829;SDS011;22767;47.328;9.640;2022-07-23T11:55:44;5.20;;;4.32;;
36829;SDS011;22767;47.328;9.640;2022-07-23T11:58:30;4.55;;;3.65;;
36829;SDS011;22767;47.328;9.640;2022-07-23T12:01:17;4.40;;;4.00;;
36829;SDS011;22767;47.328;9.640;2022-07-23T12:04:03;4.43;;;4.03;;
36829;SDS011;22767;47.328;9.640;2022-07-23T12:06:49;5.32;;;3.97;;
36829;SDS011;22767;47.328;9.640;2022-07-23T12:09:36;4.82;;;4.22;;
36829;SDS011;22767;47.328;9.640;2022-07-23T12:12:23;5.05;;;4.10;;
36829;SDS011;22767;47.328;9.640;2022-07-23T12:15:11;4.93;;;4.28;;
36829;SDS011;22767;47.328;9.640;2022-07-23T12:17:58;5.47;;;4.22;;
36829;SDS011;22767;47.328;9.640;2022-07-23T12:21:03;3.90;;;3.60;;
36829;SDS011;22767;47.328;9.640;2022-07-23T12:23:52;6.00;;;4.07;;
36829;SDS011;22767;47.328;9.640;2022-07-23T12:29:56;4.72;;;3.90;;
36829;SDS011;22767;47.328;9.640;2022-07-23T12:32:44;4.30;;;3.90;;
36829;SDS011;22767;47.328;9.640;2022-07-23T12:35:35;5.32;;;4.25;;
36829;SDS011;22767;47.328;9.640;2022-07-23T12:38:23;4.38;;;3.80;;
36829;SDS011;22767;47.328;9.640;2022-07-23T12:41:10;4.82;;;4.30;;
36829;SDS011;22767;47.328;9.640;2022-07-23T12:43:57;4.30;;;3.90;;
36829;SDS011;22767;47.328;9.640;2022-07-23T12:46:43;5.93;;;4.30;;
36829;SDS011;22767;47.328;9.640;2022-07-23T12:49:35;5.07;;;4.32;;
36829;SDS011;22767;47.328;9.640;2022-07-23T12:52:22;4.47;;;4.07;;
36829;SDS011;22767;47.328;9.640;2022-07-23T12:55:26;6.97;;;4.32;;
36829;SDS011;22767;47.328;9.640;2022-07-23T13:01:03;5.85;;;4.63;;
36829;SDS011;22767;47.328;9.640;2022-07-23T13:06:44;7.38;;;5.07;;
36829;SDS011;22767;47.328;9.640;2022-07-23T13:09:32;4.93;;;4.47;;
36829;SDS011;22767;47.328;9.640;2022-07-23T13:12:19;5.00;;;4.50;;
36829;SDS011;22767;47.328;9.640;2022-07-23T13:15:06;4.93;;;4.43;;
36829;SDS011;22767;47.328;9.640;2022-07-23T13:17:52;5.03;;;4.50;;
36829;SDS011;22767;47.328;9.640;2022-07-23T13:20:39;5.85;;;5.18;;
36829;SDS011;22767;47.328;9.640;2022-07-23T13:23:25;6.35;;;4.50;;
36829;SDS011;22767;47.328;9.640;2022-07-23T13:26:12;5.05;;;4.55;;
36829;SDS011;22767;47.328;9.640;2022-07-23T13:28:58;6.03;;;4.43;;
36829;SDS011;22767;47.328;9.640;2022-07-23T13:31:45;5.35;;;4.45;;
36829;SDS011;22767;47.328;9.640;2022-07-23T13:34:34;5.57;;;4.75;;
36829;SDS011;22767;47.328;9.640;2022-07-23T13:37:20;4.25;;;3.92;;
36829;SDS011;22767;47.328;9.640;2022-07-23T13:40:07;6.80;;;4.47;;
36829;SDS011;22767;47.328;9.640;2022-07-23T13:42:54;5.60;;;5.10;;
36829;SDS011;22767;47.328;9.640;2022-07-23T13:45:40;4.45;;;3.95;;
36829;SDS011;22767;47.328;9.640;2022-07-23T13:48:30;5.60;;;5.10;;
36829;SDS011;22767;47.328;9.640;2022-07-23T13:51:16;5.25;;;4.35;;
36829;SDS011;22767;47.328;9.640;2022-07-23T13:54:03;4.88;;;4.47;;
36829;SDS011;22767;47.328;9.640;2022-07-23T13:56:49;5.40;;;4.43;;
36829;SDS011;22767;47.328;9.640;2022-07-23T13:59:37;4.68;;;4.22;;
36829;SDS011;22767;47.328;9.640;2022-07-23T14:02:23;6.20;;;5.03;;
36829;SDS011;22767;47.328;9.640;2022-07-23T14:05:10;6.63;;;4.55;;
36829;SDS011;22767;47.328;9.640;2022-07-23T14:07:57;5.47;;;4.70;;
36829;SDS011;22767;47.328;9.640;2022-07-23T14:10:43;4.75;;;4.32;;
36829;SDS011;22767;47.328;9.640;2022-07-23T14:13:29;5.00;;;4.55;;
36829;SDS011;22767;47.328;9.640;2022-07-23T14:16:16;5.50;;;5.10;;
36829;SDS011;22767;47.328;9.640;2022-07-23T14:19:03;5.30;;;4.72;;
36829;SDS011;22767;47.328;9.640;2022-07-23T14:21:49;5.20;;;4.70;;
36829;SDS011;22767;47.328;9.640;2022-07-23T14:24:36;5.07;;;4.45;;
36829;SDS011;22767;47.328;9.640;2022-07-23T14:27:22;4.80;;;4.40;;
36829;SDS011;22767;47.328;9.640;2022-07-23T14:30:09;5.15;;;4.65;;
36829;SDS011;22767;47.328;9.640;2022-07-23T14:32:56;5.35;;;4.85;;
36829;SDS011;22767;47.328;9.640;2022-07-23T14:35:42;7.78;;;5.22;;
36829;SDS011;22767;47.328;9.640;2022-07-23T14:38:28;5.28;;;4.80;;
36829;SDS011;22767;47.328;9.640;2022-07-23T14:41:15;5.80;;;5.22;;
36829;SDS011;22767;47.328;9.640;2022-07-23T14:44:02;5.30;;;4.80;;
36829;SDS011;22767;47.328;9.640;2022-07-23T14:46:49;5.18;;;4.78;;
36829;SDS011;22767;47.328;9.640;2022-07-23T14:49:35;5.45;;;4.90;;
36829;SDS011;22767;47.328;9.640;2022-07-23T14:52:22;5.10;;;4.70;;
36829;SDS011;22767;47.328;9.640;2022-07-23T14:55:09;5.25;;;4.85;;
36829;SDS011;22767;47.328;9.640;2022-07-23T14:57:58;4.93;;;4.47;;
36829;SDS011;22767;47.328;9.640;2022-07-23T15:00:45;5.50;;;4.55;;
36829;SDS011;22767;47.328;9.640;2022-07-23T15:03:31;5.40;;;4.88;;
36829;SDS011;22767;47.328;9.640;2022-07-23T15:06:17;4.95;;;4.55;;
36829;SDS011;22767;47.328;9.640;2022-07-23T15:09:04;5.40;;;4.90;;
36829;SDS011;22767;47.328;9.640;2022-07-23T15:11:51;5.18;;;4.68;;
36829;SDS011;22767;47.328;9.640;2022-07-23T15:14:37;5.10;;;4.70;;
36829;SDS011;22767;47.328;9.640;2022-07-23T15:17:24;6.47;;;5.03;;
36829;SDS011;22767;47.328;9.640;2022-07-23T15:20:16;5.90;;;5.15;;
36829;SDS011;22767;47.328;9.640;2022-07-23T15:23:04;5.25;;;4.63;;
36829;SDS011;22767;47.328;9.640;2022-07-23T15:25:55;6.05;;;5.13;;
36829;SDS011;22767;47.328;9.640;2022-07-23T15:28:42;5.32;;;4.82;;
36829;SDS011;22767;47.328;9.640;2022-07-23T15:31:29;5.85;;;5.25;;
36829;SDS011;22767;47.328;9.640;2022-07-23T15:34:15;5.20;;;4.80;;
36829;SDS011;22767;47.328;9.640;2022-07-23T15:37:02;5.85;;;4.82;;
36829;SDS011;22767;47.328;9.640;2022-07-23T15:39:50;5.35;;;4.85;;
36829;SDS011;22767;47.328;9.640;2022-07-23T15:42:37;6.05;;;4.93;;
36829;SDS011;22767;47.328;9.640;2022-07-23T15:45:23;6.10;;;4.93;;
36829;SDS011;22767;47.328;9.640;2022-07-23T15:48:10;6.68;;;5.03;;
36829;SDS011;22767;47.328;9.640;2022-07-23T15:50:56;5.78;;;5.28;;
36829;SDS011;22767;47.328;9.640;2022-07-23T15:53:43;7.40;;;5.57;;
36829;SDS011;22767;47.328;9.640;2022-07-23T15:56:29;6.72;;;5.82;;
36829;SDS011;22767;47.328;9.640;2022-07-23T15:59:16;5.78;;;5.28;;
36829;SDS011;22767;47.328;9.640;2022-07-23T16:02:03;6.53;;;5.93;;
36829;SDS011;22767;47.328;9.640;2022-07-23T16:04:49;6.18;;;5.10;;
36829;SDS011;22767;47.328;9.640;2022-07-23T16:07:36;6.45;;;5.78;;
36829;SDS011;22767;47.328;9.640;2022-07-23T16:10:23;7.47;;;5.40;;
36829;SDS011;22767;47.328;9.640;2022-07-23T16:13:09;7.15;;;5.85;;
36829;SDS011;22767;47.328;9.640;2022-07-23T16:15:56;6.00;;;5.50;;
36829;SDS011;22767;47.328;9.640;2022-07-23T16:18:43;5.95;;;5.25;;
36829;SDS011;22767;47.328;9.640;2022-07-23T16:21:32;5.95;;;5.45;;
36829;SDS011;22767;47.328;9.640;2022-07-23T16:24:19;6.50;;;5.70;;
36829;SDS011;22767;47.328;9.640;2022-07-23T16:27:05;6.00;;;5.40;;
36829;SDS011;22767;47.328;9.640;2022-07-23T16:29:52;6.72;;;6.03;;
36829;SDS011;22767;47.328;9.640;2022-07-23T16:32:39;5.70;;;5.20;;
36829;SDS011;22767;47.328;9.640;2022-07-23T16:35:27;5.97;;;5.43;;
36829;SDS011;22767;47.328;9.640;2022-07-23T16:38:13;6.32;;;5.70;;
36829;SDS011;22767;47.328;9.640;2022-07-23T16:41:00;6.13;;;5.63;;
36829;SDS011;22767;47.328;9.640;2022-07-23T16:43:46;6.07;;;5.47;;
36829;SDS011;22767;47.328;9.640;2022-07-23T16:46:33;6.68;;;6.05;;
36829;SDS011;22767;47.328;9.640;2022-07-23T16:49:19;6.88;;;6.20;;
36829;SDS011;22767;47.328;9.640;2022-07-23T16:52:05;7.00;;;6.30;;
36829;SDS011;22767;47.328;9.640;2022-07-23T16:54:52;7.18;;;6.10;;
36829;SDS011;22767;47.328;9.640;2022-07-23T16:57:39;5.72;;;5.22;;
36829;SDS011;22767;47.328;9.640;2022-07-23T17:00:25;7.75;;;6.05;;
36829;SDS011;22767;47.328;9.640;2022-07-23T17:03:12;6.95;;;6.25;;
36829;SDS011;22767;47.328;9.640;2022-07-23T17:05:58;6.20;;;5.57;;
36829;SDS011;22767;47.328;9.640;2022-07-23T17:08:45;6.90;;;5.63;;
36829;SDS011;22767;47.328;9.640;2022-07-23T17:11:31;6.78;;;6.07;;
36829;SDS011;22767;47.328;9.640;2022-07-23T17:14:17;6.18;;;5.57;;
36829;SDS011;22767;47.328;9.640;2022-07-23T17:17:04;7.25;;;6.40;;
36829;SDS011;22767;47.328;9.640;2022-07-23T17:19:51;6.88;;;5.80;;